Time;durP1;ratioP1;P1;durP2;ratioP2;P2;SDS_P1;SDS_P2;PMS_P1;PMS_P2;Temp;Humidity;BMP_temperature;BMP_pressure;BME280_temperature;BME280_humidity;BME280_pressure;Samples;Min_cycle;Max_cycle;Signal;HPM_P1;HPM_P2
2024/02/10 00:00:28;;;;;;;2.30;2.10;;;11.00;99.90;;;;;;5042051;28;20228;-62
2024/02/10 00:02:57;;;;;;;2.83;1.97;;;11.00;99.90;;;;;;5046144;28;20231;-62
2024/02/10 00:05:26;;;;;;;4.20;2.40;;;11.00;99.90;;;;;;5041804;28;20186;-62
2024/02/10 00:07:56;;;;;;;7.20;2.63;;;10.90;99.90;;;;;;5041414;28;20221;-62
2024/02/10 00:10:27;;;;;;;6.37;2.53;;;10.80;99.90;;;;;;5043677;28;21685;-62
2024/02/10 00:12:59;;;;;;;3.80;2.33;;;10.80;99.90;;;;;;5042794;28;20240;-62
2024/02/10 00:15:29;;;;;;;3.70;2.50;;;10.80;99.90;;;;;;5041692;28;20212;-62
2024/02/10 00:17:57;;;;;;;6.13;2.10;;;10.70;99.90;;;;;;5039646;28;20704;-62
2024/02/10 00:20:25;;;;;;;5.93;2.33;;;10.60;99.90;;;;;;5046110;28;20279;-62
2024/02/10 00:22:56;;;;;;;4.53;2.43;;;10.60;99.90;;;;;;5045077;28;20203;-62
2024/02/10 00:25:25;;;;;;;4.33;2.33;;;10.60;99.90;;;;;;5044786;28;20224;-62
2024/02/10 00:27:53;;;;;;;4.43;2.50;;;10.70;99.90;;;;;;5039391;28;20229;-62
2024/02/10 00:30:23;;;;;;;8.13;2.50;;;10.70;99.90;;;;;;5043652;28;20757;-62
2024/02/10 00:32:55;;;;;;;5.57;2.40;;;10.70;99.90;;;;;;5041981;28;20604;-62
2024/02/10 00:35:24;;;;;;;3.67;2.40;;;10.70;99.90;;;;;;5042103;28;20698;-62
2024/02/10 00:37:53;;;;;;;7.37;2.50;;;10.70;99.90;;;;;;5043212;28;20204;-62
2024/02/10 00:40:22;;;;;;;6.10;2.50;;;10.70;99.90;;;;;;5040963;28;20228;-62
2024/02/10 00:42:51;;;;;;;5.17;2.83;;;10.80;99.90;;;;;;5040171;28;20216;-62
2024/02/10 00:45:21;;;;;;;5.20;2.50;;;10.80;99.90;;;;;;5043357;28;20702;-62
2024/02/10 00:47:52;;;;;;;3.70;2.60;;;10.80;99.90;;;;;;5042570;28;20258;-62
2024/02/10 00:50:21;;;;;;;10.77;3.03;;;10.80;99.90;;;;;;5038869;28;20201;-62
2024/02/10 00:52:49;;;;;;;6.20;2.27;;;10.80;99.90;;;;;;5044721;28;20215;-62
2024/02/10 00:55:27;;;;;;;5.97;2.60;;;10.80;99.90;;;;;;5039544;28;20282;-62
2024/02/10 00:58:00;;;;;;;5.20;2.60;;;10.90;99.90;;;;;;5044990;28;20220;-62
2024/02/10 01:00:30;;;;;;;4.40;2.60;;;10.80;99.90;;;;;;5041491;28;20628;-62
2024/02/10 01:03:00;;;;;;;3.83;2.40;;;10.90;99.90;;;;;;5042433;28;20251;-62
2024/02/10 01:05:29;;;;;;;3.40;2.30;;;10.80;99.90;;;;;;5041238;28;20705;-62
2024/02/10 01:07:59;;;;;;;3.20;2.60;;;10.90;99.90;;;;;;5043061;28;20332;-62
2024/02/10 01:10:30;;;;;;;3.53;2.30;;;10.80;99.90;;;;;;5043476;28;20277;-62
2024/02/10 01:13:01;;;;;;;4.03;2.70;;;10.90;99.90;;;;;;5045947;28;20217;-62
2024/02/10 01:15:32;;;;;;;9.07;2.73;;;10.90;99.90;;;;;;5044184;28;20315;-62
2024/02/10 01:18:04;;;;;;;7.60;2.43;;;10.90;99.90;;;;;;5046857;28;20236;-62
2024/02/10 01:20:33;;;;;;;2.93;2.23;;;10.80;99.90;;;;;;5045189;28;20334;-62
2024/02/10 01:23:01;;;;;;;6.07;2.60;;;10.70;99.90;;;;;;5046580;28;20291;-62
2024/02/10 01:25:32;;;;;;;7.33;2.50;;;10.70;99.90;;;;;;5046678;28;20228;-62
2024/02/10 01:28:01;;;;;;;6.10;2.43;;;10.60;99.90;;;;;;5058923;28;20263;-62
2024/02/10 01:30:30;;;;;;;4.07;2.57;;;10.60;99.90;;;;;;5046549;28;20267;-62
2024/02/10 01:32:58;;;;;;;3.13;2.40;;;10.60;99.90;;;;;;5044032;28;20263;-62
2024/02/10 01:35:28;;;;;;;5.20;2.80;;;10.50;99.90;;;;;;5043062;28;20240;-62
2024/02/10 01:37:59;;;;;;;5.37;2.33;;;10.50;99.90;;;;;;5047687;28;20263;-62
2024/02/10 01:40:27;;;;;;;5.23;2.43;;;10.50;99.90;;;;;;5044904;28;20230;-62
2024/02/10 01:42:56;;;;;;;6.63;2.50;;;10.40;99.90;;;;;;5048782;28;20232;-62
2024/02/10 01:45:24;;;;;;;6.53;2.87;;;10.40;99.90;;;;;;5046322;28;20228;-62
2024/02/10 01:47:52;;;;;;;2.37;2.27;;;10.30;99.90;;;;;;5045246;28;20612;-62
2024/02/10 01:50:20;;;;;;;4.50;2.30;;;10.30;99.90;;;;;;5041011;28;20205;-62
2024/02/10 01:52:51;;;;;;;5.27;2.43;;;10.30;99.90;;;;;;5045033;28;20193;-62
2024/02/10 01:55:19;;;;;;;4.73;2.87;;;10.30;99.90;;;;;;5043879;28;20220;-62
2024/02/10 01:57:57;;;;;;;8.40;2.43;;;10.20;99.90;;;;;;5043870;28;20221;-62
2024/02/10 02:00:26;;;;;;;6.53;2.43;;;10.20;99.90;;;;;;5045407;28;20699;-62
2024/02/10 02:02:59;;;;;;;4.90;2.80;;;10.10;99.90;;;;;;5043528;28;20251;-62
2024/02/10 02:05:28;;;;;;;6.33;2.50;;;10.10;99.90;;;;;;5043210;28;20243;-62
2024/02/10 02:07:59;;;;;;;4.80;2.20;;;10.10;99.90;;;;;;5043508;28;20212;-62
2024/02/10 02:10:27;;;;;;;5.43;2.53;;;10.10;99.90;;;;;;5044398;28;20220;-62
2024/02/10 02:12:57;;;;;;;5.57;2.53;;;10.20;99.90;;;;;;5045511;28;20578;-62
2024/02/10 02:15:27;;;;;;;5.17;2.57;;;10.20;99.90;;;;;;5044276;28;20228;-62
2024/02/10 02:17:56;;;;;;;3.50;2.20;;;10.20;99.90;;;;;;5047009;28;20595;-62
2024/02/10 02:20:25;;;;;;;4.00;2.50;;;10.20;99.90;;;;;;5045560;28;20308;-62
2024/02/10 02:22:55;;;;;;;4.57;2.43;;;10.20;99.90;;;;;;5045138;28;20211;-62
2024/02/10 02:25:23;;;;;;;3.70;2.40;;;10.20;99.90;;;;;;5046455;28;20224;-62
2024/02/10 02:27:51;;;;;;;3.60;2.30;;;10.10;99.90;;;;;;5045113;28;20227;-62
2024/02/10 02:30:20;;;;;;;2.40;2.17;;;10.10;99.90;;;;;;5043004;28;20213;-62
2024/02/10 02:32:50;;;;;;;7.40;2.80;;;10.00;99.90;;;;;;5042412;28;20228;-62
2024/02/10 02:35:18;;;;;;;3.70;2.63;;;10.00;99.90;;;;;;5041560;28;20224;-62
2024/02/10 02:37:47;;;;;;;2.93;2.50;;;9.90;99.90;;;;;;5041968;28;20280;-62
2024/02/10 02:40:18;;;;;;;9.53;2.70;;;9.90;99.90;;;;;;5044846;28;20241;-62
2024/02/10 02:42:47;;;;;;;5.93;2.47;;;9.80;99.90;;;;;;5041029;28;20225;-62
2024/02/10 02:45:15;;;;;;;2.57;2.10;;;9.80;99.90;;;;;;5045549;28;20228;-62
2024/02/10 02:47:43;;;;;;;8.60;2.40;;;9.70;99.90;;;;;;5041895;28;20638;-62
2024/02/10 02:50:14;;;;;;;7.10;2.70;;;9.70;99.90;;;;;;5046102;28;20210;-60
2024/02/10 02:52:44;;;;;;;4.73;2.70;;;9.70;99.90;;;;;;5042297;28;20998;-62
2024/02/10 02:55:12;;;;;;;4.27;2.40;;;9.70;99.90;;;;;;5045097;28;20216;-62
2024/02/10 02:57:44;;;;;;;3.63;2.27;;;9.70;99.90;;;;;;5041596;28;20221;-62
2024/02/10 03:00:13;;;;;;;2.60;2.40;;;9.60;99.90;;;;;;5047068;28;20227;-62
2024/02/10 03:02:42;;;;;;;4.80;2.73;;;9.50;99.90;;;;;;5042948;28;20239;-62
2024/02/10 03:05:11;;;;;;;3.87;2.47;;;9.50;99.90;;;;;;5044896;28;20289;-62
2024/02/10 03:07:42;;;;;;;5.00;2.57;;;9.50;99.90;;;;;;5042842;28;20244;-62
2024/02/10 03:10:12;;;;;;;5.33;2.70;;;9.40;99.90;;;;;;5046211;28;20303;-62
2024/02/10 03:12:46;;;;;;;3.30;2.40;;;9.40;99.90;;;;;;5046931;28;20231;-62
2024/02/10 03:15:15;;;;;;;2.40;2.13;;;9.30;99.90;;;;;;5040425;28;20228;-62
2024/02/10 03:17:46;;;;;;;4.00;2.33;;;9.20;99.90;;;;;;5043677;28;20251;-62
2024/02/10 03:20:23;;;;;;;5.83;2.37;;;9.20;99.90;;;;;;5046349;28;20250;-62
2024/02/10 03:23:01;;;;;;;3.47;2.30;;;9.20;99.90;;;;;;5041635;28;20532;-62
2024/02/10 03:25:30;;;;;;;4.17;2.00;;;9.10;99.90;;;;;;5046350;28;20224;-62
2024/02/10 03:28:03;;;;;;;4.77;2.43;;;9.10;99.90;;;;;;5057454;28;20299;-62
2024/02/10 03:30:32;;;;;;;3.00;1.90;;;9.10;99.90;;;;;;5046768;28;20224;-62
2024/02/10 03:33:01;;;;;;;3.43;2.70;;;9.10;99.90;;;;;;5045136;28;20673;-63
2024/02/10 03:35:33;;;;;;;3.20;2.20;;;9.00;99.90;;;;;;5044887;28;20307;-62
2024/02/10 03:38:02;;;;;;;3.77;2.10;;;9.00;99.90;;;;;;5040100;28;20230;-62
2024/02/10 03:40:30;;;;;;;2.30;2.10;;;9.00;99.90;;;;;;5042345;28;20212;-62
2024/02/10 03:42:59;;;;;;;3.47;2.40;;;8.90;99.90;;;;;;5044974;28;20249;-62
2024/02/10 03:45:34;;;;;;;7.37;2.67;;;8.90;99.90;;;;;;5041163;28;20216;-62
2024/02/10 03:48:04;;;;;;;2.93;2.30;;;8.90;99.90;;;;;;5038862;28;20217;-62
2024/02/10 03:50:32;;;;;;;6.17;2.40;;;8.90;99.90;;;;;;5044599;28;20224;-62
2024/02/10 03:53:01;;;;;;;4.50;2.60;;;8.90;99.90;;;;;;5042670;28;20687;-62
2024/02/10 03:55:29;;;;;;;3.30;2.30;;;9.00;99.90;;;;;;5044418;28;20218;-62
2024/02/10 03:58:00;;;;;;;2.50;2.30;;;9.10;99.90;;;;;;5044646;28;20233;-62
2024/02/10 04:00:29;;;;;;;2.73;2.33;;;9.10;99.90;;;;;;5045071;28;20240;-62
2024/02/10 04:02:57;;;;;;;4.23;2.37;;;9.20;99.90;;;;;;5040445;28;20904;-62
2024/02/10 04:05:34;;;;;;;2.60;2.40;;;9.20;99.90;;;;;;5038913;28;20738;-62
2024/02/10 04:08:06;;;;;;;4.83;2.40;;;9.30;99.90;;;;;;5042476;28;20192;-62
2024/02/10 04:10:36;;;;;;;5.57;2.73;;;9.30;99.90;;;;;;5042377;28;20221;-62
2024/02/10 04:13:05;;;;;;;7.73;2.90;;;9.30;99.90;;;;;;5035362;28;20225;-62
2024/02/10 04:15:34;;;;;;;7.27;2.90;;;9.40;99.90;;;;;;5042358;28;20251;-62
2024/02/10 04:18:03;;;;;;;5.00;3.00;;;9.40;99.90;;;;;;5043892;28;20217;-62
2024/02/10 04:20:31;;;;;;;7.50;3.30;;;9.40;99.90;;;;;;5042323;28;20255;-62
2024/02/10 04:23:03;;;;;;;18.20;3.70;;;9.40;99.90;;;;;;5043639;28;20209;-62
2024/02/10 04:25:33;;;;;;;7.27;3.67;;;9.50;99.90;;;;;;5044636;28;20691;-62
2024/02/10 04:28:02;;;;;;;12.23;4.33;;;9.50;99.90;;;;;;5043773;28;20894;-62
2024/02/10 04:30:33;;;;;;;10.37;4.13;;;9.50;99.90;;;;;;5042879;28;20224;-62
2024/02/10 04:33:04;;;;;;;8.40;4.60;;;9.50;99.90;;;;;;5035545;28;20227;-63
2024/02/10 04:35:32;;;;;;;11.37;4.90;;;9.50;99.90;;;;;;5038462;28;20240;-62
2024/02/10 04:38:02;;;;;;;13.37;4.63;;;9.50;99.90;;;;;;5043507;28;20189;-62
2024/02/10 04:40:30;;;;;;;11.30;4.40;;;9.50;99.90;;;;;;5042589;28;20205;-61
2024/02/10 04:42:59;;;;;;;11.17;4.80;;;9.60;99.90;;;;;;5038819;28;20229;-62
2024/02/10 04:45:28;;;;;;;13.47;5.67;;;9.60;99.90;;;;;;5043817;28;20589;-62
2024/02/10 04:47:58;;;;;;;10.77;5.30;;;9.60;99.90;;;;;;5040168;28;20320;-62
2024/02/10 04:50:28;;;;;;;13.33;5.50;;;9.60;99.90;;;;;;5039404;28;20235;-62
2024/02/10 04:52:56;;;;;;;14.33;5.27;;;9.60;99.90;;;;;;5040990;28;20717;-62
2024/02/10 04:55:26;;;;;;;10.93;4.60;;;9.60;99.90;;;;;;5043271;28;20320;-62
2024/02/10 04:57:55;;;;;;;10.10;4.67;;;9.70;99.90;;;;;;5042059;28;20274;-62
2024/02/10 05:00:24;;;;;;;9.63;4.47;;;9.70;99.90;;;;;;5041377;28;20223;-62
2024/02/10 05:02:53;;;;;;;9.53;4.77;;;9.70;99.90;;;;;;5041522;28;20224;-62
2024/02/10 05:05:22;;;;;;;10.60;4.53;;;9.80;99.90;;;;;;5045839;28;20216;-62
2024/02/10 05:07:53;;;;;;;14.47;5.00;;;9.80;99.90;;;;;;5041921;28;20204;-62
2024/02/10 05:10:22;;;;;;;7.93;4.23;;;9.80;99.90;;;;;;5041731;28;20222;-62
2024/02/10 05:12:52;;;;;;;9.93;4.90;;;9.90;99.90;;;;;;5041993;28;20221;-62
2024/02/10 05:15:23;;;;;;;9.20;4.23;;;9.90;99.90;;;;;;5043729;28;20694;-62
2024/02/10 05:17:52;;;;;;;8.87;4.47;;;9.90;99.90;;;;;;5039674;28;20225;-62
2024/02/10 05:20:23;;;;;;;5.57;3.77;;;9.90;99.90;;;;;;5043062;28;20261;-62
2024/02/10 05:22:53;;;;;;;6.90;4.20;;;9.80;99.90;;;;;;5040396;28;20197;-62
2024/02/10 05:25:27;;;;;;;6.67;4.67;;;9.80;99.90;;;;;;5039628;28;20240;-62
2024/02/10 05:28:00;;;;;;;11.10;4.63;;;9.80;99.90;;;;;;5040508;28;20220;-63
2024/02/10 05:30:29;;;;;;;10.70;4.80;;;9.80;99.90;;;;;;5042881;28;20627;-62
2024/02/10 05:33:01;;;;;;;11.70;4.87;;;9.80;99.90;;;;;;5039792;28;20271;-63
2024/02/10 05:35:32;;;;;;;9.80;4.67;;;9.80;99.90;;;;;;5041084;28;20749;-62
2024/02/10 05:38:03;;;;;;;8.53;4.93;;;9.70;99.90;;;;;;5056612;28;20197;-62
2024/02/10 05:40:32;;;;;;;12.73;5.00;;;9.80;99.90;;;;;;5040675;28;20213;-62
2024/02/10 05:43:04;;;;;;;8.10;4.50;;;9.80;99.90;;;;;;5041380;28;20218;-62
2024/02/10 05:45:34;;;;;;;9.57;4.87;;;9.80;99.90;;;;;;5039624;28;20218;-62
2024/02/10 05:48:03;;;;;;;9.13;4.60;;;9.90;99.90;;;;;;5038061;28;20216;-62
2024/02/10 05:50:33;;;;;;;8.57;4.63;;;9.90;99.90;;;;;;5039969;28;20306;-62
2024/02/10 05:53:04;;;;;;;7.60;4.50;;;10.00;99.90;;;;;;5041634;28;20193;-62
2024/02/10 05:55:33;;;;;;;10.70;4.20;;;10.10;99.90;;;;;;5046437;28;20213;-62
2024/02/10 05:58:04;;;;;;;8.13;3.97;;;10.10;99.90;;;;;;5045478;28;20948;-62
2024/02/10 06:00:33;;;;;;;9.77;4.30;;;10.10;99.90;;;;;;5044687;28;20271;-62
2024/02/10 06:03:04;;;;;;;7.40;3.60;;;10.10;99.90;;;;;;5044483;28;20227;-62
2024/02/10 06:05:34;;;;;;;5.93;3.33;;;10.10;99.90;;;;;;5043544;28;20274;-62
2024/02/10 06:08:03;;;;;;;4.53;3.60;;;10.00;99.90;;;;;;5045417;28;20247;-61
2024/02/10 06:10:32;;;;;;;5.50;3.50;;;10.10;99.90;;;;;;5046677;28;20216;-62
2024/02/10 06:13:00;;;;;;;5.07;3.70;;;10.10;99.90;;;;;;5044743;28;20622;-62
2024/02/10 06:15:29;;;;;;;3.77;3.47;;;10.10;99.90;;;;;;5046088;28;20300;-62
2024/02/10 06:17:59;;;;;;;5.23;3.37;;;10.10;99.90;;;;;;5045081;28;20307;-62
2024/02/10 06:20:28;;;;;;;6.27;3.50;;;10.10;99.90;;;;;;5044923;28;20185;-62
2024/02/10 06:22:58;;;;;;;6.70;4.07;;;10.10;99.90;;;;;;5044708;28;20203;-62
2024/02/10 06:25:27;;;;;;;5.10;3.60;;;10.10;99.90;;;;;;5047150;28;20224;-62
2024/02/10 06:27:59;;;;;;;5.70;3.50;;;10.10;99.90;;;;;;5046827;28;20225;-62
2024/02/10 06:30:30;;;;;;;7.27;3.43;;;10.10;99.90;;;;;;5045524;28;20671;-62
2024/02/10 06:32:59;;;;;;;6.23;3.90;;;10.00;99.90;;;;;;5041788;28;20228;-62
2024/02/10 06:35:29;;;;;;;7.70;4.13;;;10.00;99.90;;;;;;5044731;28;20239;-62
2024/02/10 06:37:58;;;;;;;6.23;4.13;;;10.00;99.90;;;;;;5046723;28;20208;-62
2024/02/10 06:40:27;;;;;;;7.70;4.50;;;10.00;99.90;;;;;;5039999;28;20225;-62
2024/02/10 06:42:55;;;;;;;7.20;4.10;;;10.00;99.90;;;;;;5041534;28;20262;-62
2024/02/10 06:45:25;;;;;;;8.13;4.40;;;9.90;99.90;;;;;;5044536;28;20224;-62
2024/02/10 06:47:54;;;;;;;6.00;4.43;;;9.80;99.90;;;;;;5043755;28;20612;-62
2024/02/10 06:50:26;;;;;;;12.10;4.67;;;9.70;99.90;;;;;;5045589;28;20189;-62
2024/02/10 06:52:59;;;;;;;10.87;4.93;;;9.60;99.90;;;;;;5043495;28;20217;-62
2024/02/10 06:55:30;;;;;;;10.57;4.57;;;9.50;99.90;;;;;;5043906;28;20232;-62
2024/02/10 06:58:02;;;;;;;9.27;4.97;;;9.50;99.90;;;;;;5045183;28;20679;-62
2024/02/10 07:00:40;;;;;;;11.23;4.77;;;9.50;99.90;;;;;;5044731;28;20249;-62
2024/02/10 07:03:09;;;;;;;8.47;4.70;;;9.40;99.90;;;;;;5041560;28;20239;-62
2024/02/10 07:05:38;;;;;;;10.20;5.30;;;9.40;99.90;;;;;;5039518;28;20229;-62
2024/02/10 07:08:11;;;;;;;6.43;4.97;;;9.40;99.90;;;;;;5043260;28;20197;-62
2024/02/10 07:10:40;;;;;;;11.10;4.80;;;9.40;99.90;;;;;;5038934;28;20311;-63
2024/02/10 07:13:09;;;;;;;9.10;4.77;;;9.30;99.90;;;;;;5044295;28;20311;-62
2024/02/10 07:15:37;;;;;;;9.13;5.17;;;9.40;99.90;;;;;;5060349;28;20808;-62
2024/02/10 07:18:07;;;;;;;11.13;4.67;;;9.40;99.90;;;;;;5041587;28;20217;-62
2024/02/10 07:20:36;;;;;;;8.63;4.53;;;9.50;99.90;;;;;;5045063;28;20236;-62
2024/02/10 07:23:05;;;;;;;6.50;4.23;;;9.40;99.90;;;;;;5041918;28;20255;-62
2024/02/10 07:25:35;;;;;;;8.30;4.47;;;9.50;99.90;;;;;;5043209;28;20227;-63
2024/02/10 07:28:07;;;;;;;10.23;5.00;;;9.50;99.90;;;;;;5044229;28;20221;-62
2024/02/10 07:30:35;;;;;;;10.43;4.80;;;9.50;99.90;;;;;;5042011;28;20327;-62
2024/02/10 07:33:08;;;;;;;9.43;5.37;;;9.50;99.90;;;;;;5043251;28;20227;-62
2024/02/10 07:35:38;;;;;;;9.00;4.80;;;9.50;99.90;;;;;;5036641;28;20592;-62
2024/02/10 07:38:08;;;;;;;10.60;5.30;;;9.50;99.90;;;;;;5041059;28;20204;-62
2024/02/10 07:40:37;;;;;;;9.37;5.33;;;9.50;99.90;;;;;;5038941;28;20217;-62
2024/02/10 07:43:12;;;;;;;7.23;4.97;;;9.50;99.90;;;;;;5040384;28;20222;-62
2024/02/10 07:45:41;;;;;;;5.57;4.90;;;9.50;99.90;;;;;;5039591;28;20240;-62
2024/02/10 07:48:09;;;;;;;9.60;5.00;;;9.50;99.90;;;;;;5041516;28;20229;-62
2024/02/10 07:50:41;;;;;;;7.43;5.60;;;9.50;99.90;;;;;;5042521;28;20244;-62
2024/02/10 07:53:13;;;;;;;7.77;5.70;;;9.60;99.90;;;;;;5042079;28;20189;-62
2024/02/10 07:55:46;;;;;;;9.00;5.80;;;9.70;99.90;;;;;;5040038;28;20220;-62
2024/02/10 07:58:16;;;;;;;8.43;4.90;;;9.80;99.90;;;;;;5042647;28;20345;-62
2024/02/10 08:00:46;;;;;;;8.03;4.67;;;9.90;99.90;;;;;;5044400;28;20220;-62
2024/02/10 08:03:15;;;;;;;10.10;4.97;;;9.90;99.90;;;;;;5039546;28;20777;-62
2024/02/10 08:05:43;;;;;;;6.87;4.70;;;10.00;99.90;;;;;;5036466;28;20248;-62
2024/02/10 08:08:12;;;;;;;9.17;5.07;;;10.10;99.90;;;;;;5041831;28;20224;-60
2024/02/10 08:10:40;;;;;;;8.10;4.87;;;10.10;99.90;;;;;;5045512;28;20228;-62
2024/02/10 08:13:09;;;;;;;9.63;4.93;;;10.20;99.90;;;;;;5042168;28;20232;-62
2024/02/10 08:15:39;;;;;;;10.53;4.80;;;10.30;99.90;;;;;;5047895;28;20220;-62
2024/02/10 08:18:08;;;;;;;8.13;4.63;;;10.30;99.90;;;;;;5042951;28;20307;-62
2024/02/10 08:20:40;;;;;;;8.30;5.17;;;10.40;99.90;;;;;;5049237;28;20236;-62
2024/02/10 08:23:11;;;;;;;7.13;4.80;;;10.50;99.90;;;;;;5044748;28;20231;-63
2024/02/10 08:25:41;;;;;;;7.17;4.73;;;10.60;99.90;;;;;;5043835;28;20651;-63
2024/02/10 08:28:11;;;;;;;10.37;5.10;;;10.70;99.90;;;;;;5042436;28;20262;-62
2024/02/10 08:30:41;;;;;;;7.03;4.83;;;10.80;99.90;;;;;;5039924;28;20445;-62
2024/02/10 08:33:09;;;;;;;8.33;4.70;;;10.90;99.90;;;;;;5046385;28;20224;-62
2024/02/10 08:35:38;;;;;;;7.50;5.03;;;10.90;99.90;;;;;;5039570;28;20252;-62
2024/02/10 08:38:06;;;;;;;9.13;5.13;;;11.00;99.90;;;;;;5042600;28;20679;-62
2024/02/10 08:40:34;;;;;;;6.07;5.17;;;11.10;99.90;;;;;;5041780;28;20252;-62
2024/02/10 08:43:08;;;;;;;6.87;5.43;;;11.10;99.90;;;;;;5042414;28;20229;-62
2024/02/10 08:45:38;;;;;;;9.77;5.03;;;11.10;99.90;;;;;;5060073;28;20232;-63
2024/02/10 08:48:10;;;;;;;9.50;5.33;;;11.10;99.90;;;;;;5044490;28;20220;-62
2024/02/10 08:50:41;;;;;;;8.20;5.40;;;11.10;99.90;;;;;;5038318;28;20221;-62
2024/02/10 08:53:15;;;;;;;10.40;5.30;;;11.10;99.90;;;;;;5043206;28;20208;-62
2024/02/10 08:55:44;;;;;;;7.37;5.53;;;11.10;99.90;;;;;;5043804;28;20588;-62
2024/02/10 08:58:13;;;;;;;7.63;5.40;;;11.10;99.90;;;;;;5039993;28;20229;-62
2024/02/10 09:00:45;;;;;;;7.33;5.13;;;11.00;99.90;;;;;;5041927;28;20229;-63
2024/02/10 09:03:15;;;;;;;6.87;4.83;;;11.00;99.90;;;;;;5043985;28;20311;-62
2024/02/10 09:05:43;;;;;;;5.57;4.43;;;11.00;99.90;;;;;;5034910;28;20220;-62
2024/02/10 09:08:12;;;;;;;5.43;4.90;;;11.00;99.90;;;;;;5037210;28;20232;-59
2024/02/10 09:10:40;;;;;;;6.90;4.40;;;11.00;99.90;;;;;;5040965;28;20201;-63
2024/02/10 09:13:09;;;;;;;4.67;4.27;;;11.00;99.90;;;;;;5034706;28;20613;-62
2024/02/10 09:15:37;;;;;;;6.90;4.27;;;11.00;99.90;;;;;;5040906;28;20749;-63
2024/02/10 09:18:07;;;;;;;7.70;4.33;;;11.10;99.90;;;;;;5041316;28;20220;-62
2024/02/10 09:20:37;;;;;;;6.40;4.43;;;11.10;99.90;;;;;;5038679;28;20279;-62
2024/02/10 09:23:05;;;;;;;5.27;4.10;;;11.10;99.90;;;;;;5043280;28;20201;-62
2024/02/10 09:25:36;;;;;;;4.93;4.23;;;11.20;99.90;;;;;;5043447;28;20236;-63
2024/02/10 09:28:06;;;;;;;7.10;4.20;;;11.20;99.90;;;;;;5042041;28;20224;-62
2024/02/10 09:30:36;;;;;;;6.97;4.70;;;11.20;99.90;;;;;;5043061;28;20220;-63
2024/02/10 09:33:19;;;;;;;6.37;4.60;;;11.20;99.90;;;;;;5045901;28;20232;-63
2024/02/10 09:35:50;;;;;;;7.83;4.30;;;11.20;99.90;;;;;;5045717;28;20237;-62
2024/02/10 09:38:22;;;;;;;6.67;4.30;;;11.30;99.90;;;;;;5040147;28;20189;-62
2024/02/10 09:40:56;;;;;;;8.47;4.10;;;11.30;99.90;;;;;;5048377;28;20220;-62
2024/02/10 09:43:32;;;;;;;4.63;4.23;;;11.40;99.90;;;;;;5043677;28;20273;-62
2024/02/10 09:46:06;;;;;;;7.40;3.90;;;11.50;99.90;;;;;;5038296;28;21445;-63
2024/02/10 09:48:38;;;;;;;6.10;4.20;;;11.50;99.90;;;;;;5043126;28;20212;-63
2024/02/10 09:51:08;;;;;;;6.80;4.37;;;11.60;99.90;;;;;;5056445;28;20568;-62
2024/02/10 09:53:40;;;;;;;7.30;4.37;;;11.60;99.90;;;;;;5039641;28;20224;-63
2024/02/10 09:56:10;;;;;;;7.30;4.30;;;11.70;99.90;;;;;;5041353;28;20539;-62
2024/02/10 09:58:41;;;;;;;5.00;4.37;;;11.70;99.90;;;;;;5043822;28;20237;-62
2024/02/10 10:01:10;;;;;;;4.30;4.00;;;11.80;99.90;;;;;;5039693;28;20691;-62
2024/02/10 10:03:39;;;;;;;4.87;4.30;;;11.80;99.90;;;;;;5043008;28;20317;-62
2024/02/10 10:06:11;;;;;;;5.00;4.50;;;11.90;99.90;;;;;;5040526;28;20221;-62
2024/02/10 10:08:41;;;;;;;5.63;5.07;;;12.00;99.90;;;;;;5039968;28;20274;-62
2024/02/10 10:11:10;;;;;;;4.73;4.40;;;12.00;99.90;;;;;;5042677;28;20193;-63
2024/02/10 10:13:39;;;;;;;5.90;4.13;;;12.10;99.90;;;;;;5041838;28;20232;-63
2024/02/10 10:16:09;;;;;;;5.70;4.17;;;12.20;99.90;;;;;;5039109;28;20220;-62
2024/02/10 10:18:38;;;;;;;7.10;4.30;;;12.20;99.90;;;;;;5042851;28;20834;-62
2024/02/10 10:21:10;;;;;;;8.77;5.00;;;12.20;99.90;;;;;;5047501;28;20220;-62
2024/02/10 10:23:39;;;;;;;5.30;4.20;;;12.30;99.90;;;;;;5043227;28;20221;-62
2024/02/10 10:26:09;;;;;;;4.40;3.90;;;12.20;99.90;;;;;;5047379;28;20189;-62
2024/02/10 10:28:41;;;;;;;4.67;4.20;;;12.30;99.90;;;;;;5042190;28;20588;-62
2024/02/10 10:31:10;;;;;;;5.93;4.63;;;12.50;99.90;;;;;;5044007;28;20229;-62
2024/02/10 10:33:45;;;;;;;4.63;4.23;;;12.60;99.90;;;;;;5043275;28;20695;-62
2024/02/10 10:36:16;;;;;;;6.97;4.10;;;12.70;99.90;;;;;;5040403;28;20225;-62
2024/02/10 10:38:45;;;;;;;7.27;4.00;;;12.60;99.90;;;;;;5039031;28;20622;-62
2024/02/10 10:41:18;;;;;;;7.00;6.27;;;12.70;99.90;;;;;;5037876;28;20247;-62
2024/02/10 10:43:47;;;;;;;8.03;4.73;;;12.80;99.90;;;;;;5044487;28;20575;-63
2024/02/10 10:46:17;;;;;;;53.70;30.43;;;12.80;99.90;;;;;;5036729;28;20228;-63
2024/02/10 10:48:45;;;;;;;13.57;9.40;;;12.90;99.90;;;;;;5041308;28;20225;-63
2024/02/10 10:51:18;;;;;;;17.50;10.13;;;13.00;99.90;;;;;;5043403;28;20232;-63
2024/02/10 10:53:49;;;;;;;19.73;12.27;;;13.00;99.90;;;;;;5043609;28;20567;-63
2024/02/10 10:56:22;;;;;;;7.63;5.40;;;13.10;99.90;;;;;;5043926;28;20595;-62
2024/02/10 10:58:57;;;;;;;6.77;4.63;;;13.20;99.90;;;;;;5042822;28;20196;-63
2024/02/10 11:01:28;;;;;;;7.10;6.10;;;13.10;99.90;;;;;;5044133;28;20220;-62
2024/02/10 11:04:01;;;;;;;12.70;8.10;;;13.10;99.90;;;;;;5044425;28;20232;-63
2024/02/10 11:06:33;;;;;;;4.27;3.63;;;13.30;99.90;;;;;;5042741;28;20209;-62
2024/02/10 11:09:04;;;;;;;4.10;3.83;;;13.40;99.90;;;;;;5041246;28;20496;-63
2024/02/10 11:11:36;;;;;;;4.60;3.87;;;13.30;99.90;;;;;;5044077;28;20762;-62
2024/02/10 11:14:11;;;;;;;5.30;3.63;;;13.40;99.90;;;;;;5044770;28;20206;-63
2024/02/10 11:16:42;;;;;;;5.73;3.90;;;13.40;99.90;;;;;;5046566;28;20216;-63
2024/02/10 11:19:12;;;;;;;9.67;7.80;;;13.60;99.90;;;;;;5047015;28;21098;-63
2024/02/10 11:21:47;;;;;;;4.47;4.07;;;13.60;99.90;;;;;;5041983;28;20293;-63
2024/02/10 11:24:16;;;;;;;5.00;4.50;;;13.70;99.90;;;;;;5038829;28;20240;-63
2024/02/10 11:26:46;;;;;;;4.10;3.70;;;13.60;99.90;;;;;;5044812;28;20213;-62
2024/02/10 11:29:15;;;;;;;5.40;5.00;;;13.60;99.90;;;;;;5040285;28;20691;-63
2024/02/10 11:31:43;;;;;;;4.47;4.10;;;13.50;99.90;;;;;;5044829;28;20205;-62
2024/02/10 11:34:16;;;;;;;4.77;4.10;;;13.50;99.90;;;;;;5045325;28;20221;-62
2024/02/10 11:36:53;;;;;;;4.10;3.80;;;13.50;99.90;;;;;;5044520;28;20958;-62
2024/02/10 11:39:23;;;;;;;6.00;4.13;;;13.60;99.90;;;;;;5042135;28;20228;-62
2024/02/10 11:41:55;;;;;;;3.90;3.50;;;13.80;99.90;;;;;;5044111;28;20271;-62
2024/02/10 11:44:26;;;;;;;3.67;3.37;;;13.90;99.90;;;;;;5042876;28;20185;-62
2024/02/10 11:46:55;;;;;;;3.97;3.60;;;14.10;99.90;;;;;;5045789;28;20221;-62
2024/02/10 11:49:24;;;;;;;5.73;4.00;;;14.30;99.90;;;;;;5042871;28;20269;-62
2024/02/10 11:51:56;;;;;;;5.60;3.47;;;14.30;99.90;;;;;;5042319;28;20236;-63
2024/02/10 11:54:26;;;;;;;3.27;3.07;;;14.40;99.90;;;;;;5041795;28;20225;-62
2024/02/10 11:57:00;;;;;;;4.53;3.77;;;14.50;99.90;;;;;;5040894;28;20314;-62
2024/02/10 11:59:30;;;;;;;4.10;3.50;;;14.60;99.90;;;;;;5042180;28;20652;-62
2024/02/10 12:01:59;;;;;;;46.13;25.40;;;14.40;99.90;;;;;;5044467;28;20245;-62
2024/02/10 12:04:29;;;;;;;11.60;9.73;;;14.50;99.90;;;;;;5042902;28;20223;-61
2024/02/10 12:06:59;;;;;;;14.00;10.80;;;14.40;99.90;;;;;;5045075;28;20240;-61
2024/02/10 12:09:27;;;;;;;21.97;12.50;;;14.20;99.90;;;;;;5055672;28;20242;-62
2024/02/10 12:11:59;;;;;;;36.13;23.33;;;14.30;99.90;;;;;;5041731;28;20223;-62
2024/02/10 12:14:29;;;;;;;9.93;6.83;;;14.50;99.90;;;;;;5045236;28;20224;-62
2024/02/10 12:17:01;;;;;;;6.53;4.67;;;14.60;99.90;;;;;;5044206;28;20193;-62
2024/02/10 12:19:36;;;;;;;4.73;3.83;;;14.60;99.90;;;;;;5040223;28;20269;-62
2024/02/10 12:22:09;;;;;;;8.30;4.50;;;14.80;99.90;;;;;;5043636;28;20299;-62
2024/02/10 12:24:38;;;;;;;4.87;3.77;;;14.90;99.90;;;;;;5041553;28;20274;-62
2024/02/10 12:27:07;;;;;;;5.63;4.07;;;15.00;99.90;;;;;;5044791;28;20579;-62
2024/02/10 12:29:37;;;;;;;6.90;3.70;;;15.30;99.90;;;;;;5042282;28;20270;-63
2024/02/10 12:32:08;;;;;;;5.90;3.73;;;15.60;99.90;;;;;;5043023;28;20255;-62
2024/02/10 12:34:37;;;;;;;5.73;3.63;;;15.80;99.90;;;;;;5040447;28;20243;-62
2024/02/10 12:37:08;;;;;;;5.63;3.60;;;16.00;98.00;;;;;;5044040;28;20216;-62
2024/02/10 12:39:37;;;;;;;3.17;2.97;;;15.80;99.90;;;;;;5043735;28;20228;-62
2024/02/10 12:42:05;;;;;;;5.17;3.63;;;15.70;99.40;;;;;;5040521;28;20595;-62
2024/02/10 12:44:35;;;;;;;4.00;3.60;;;15.80;99.90;;;;;;5039870;28;20293;-63
2024/02/10 12:47:04;;;;;;;5.37;3.47;;;15.80;99.90;;;;;;5043389;28;20757;-63
2024/02/10 12:49:34;;;;;;;4.97;4.40;;;16.10;94.00;;;;;;5041731;28;20223;-62
2024/02/10 12:52:06;;;;;;;3.83;3.23;;;16.00;95.90;;;;;;5053773;28;20229;-62
2024/02/10 12:54:36;;;;;;;4.93;2.80;;;16.00;89.10;;;;;;5041539;28;20655;-62
2024/02/10 12:57:05;;;;;;;3.03;2.83;;;16.10;94.20;;;;;;5039360;28;20232;-62
2024/02/10 12:59:33;;;;;;;5.83;3.10;;;16.30;91.50;;;;;;5041983;28;20221;-62
2024/02/10 13:02:01;;;;;;;4.53;3.30;;;16.50;90.00;;;;;;5043213;28;20205;-62